Kindakun Rocks, Canada
Current Conditions -  °F | °C
As of 4:05 AM on Wednesday 26 Nov 2014 (Local Time) from CYZP Reporting Station
Overcast Overcast  
Wind Chill: 38°   Ceiling: 2800
Heat Index: 43°   Visibility: 9mi
Dew Point: 41°   Wind: 8mph
Humidity: 93%   Direction: 340°NNW
Pressure: 30.1"   Gusts: NA
Location:  53.32°N, 132.75°W
Report Text: CYZP 261205Z AUTO 34007KT 9SM FEW008 SCT012 SCT022 OVC028 06/05 A3010 RMK SLP193
Loading
Personal Weather Stations






























Interactive Weather Map New forecast layout! Learn more

10-Day Weather Forecast

Advertisements
Track Severe Weather on mobile